sensor_id;sensor_type;location;lat;lon;timestamp;temperature;humidity
2967;DHT22;1493;51.496;7.210;2023-04-03T00:00:31;1.90;99.90
2967;DHT22;1493;51.496;7.210;2023-04-03T00:02:58;1.90;99.90
2967;DHT22;1493;51.496;7.210;2023-04-03T00:05:27;1.90;99.90
2967;DHT22;1493;51.496;7.210;2023-04-03T00:07:53;1.90;99.90
2967;DHT22;1493;51.496;7.210;2023-04-03T00:10:21;1.90;99.90
2967;DHT22;1493;51.496;7.210;2023-04-03T00:12:48;1.80;99.90
2967;DHT22;1493;51.496;7.210;2023-04-03T00:15:15;1.80;99.90
2967;DHT22;1493;51.496;7.210;2023-04-03T00:17:42;1.80;99.90
2967;DHT22;1493;51.496;7.210;2023-04-03T00:20:09;1.80;99.90
2967;DHT22;1493;51.496;7.210;2023-04-03T00:22:37;1.70;99.90
2967;DHT22;1493;51.496;7.210;2023-04-03T00:25:05;1.70;99.90
2967;DHT22;1493;51.496;7.210;2023-04-03T00:27:31;1.70;99.90
2967;DHT22;1493;51.496;7.210;2023-04-03T00:29:58;1.70;99.90
2967;DHT22;1493;51.496;7.210;2023-04-03T00:32:25;1.60;99.90
2967;DHT22;1493;51.496;7.210;2023-04-03T00:34:52;1.60;99.90
2967;DHT22;1493;51.496;7.210;2023-04-03T00:37:19;1.60;99.90
2967;DHT22;1493;51.496;7.210;2023-04-03T00:39:47;1.60;99.90
2967;DHT22;1493;51.496;7.210;2023-04-03T00:42:14;1.60;99.90
2967;DHT22;1493;51.496;7.210;2023-04-03T00:48:01;1.60;99.90
2967;DHT22;1493;51.496;7.210;2023-04-03T00:50:29;1.70;99.90
2967;DHT22;1493;51.496;7.210;2023-04-03T00:52:57;1.60;99.90
2967;DHT22;1493;51.496;7.210;2023-04-03T00:55:25;1.70;99.90
2967;DHT22;1493;51.496;7.210;2023-04-03T00:57:53;1.70;99.90
2967;DHT22;1493;51.496;7.210;2023-04-03T01:00:22;1.80;99.90
2967;DHT22;1493;51.496;7.210;2023-04-03T01:02:50;1.80;99.90
2967;DHT22;1493;51.496;7.210;2023-04-03T01:05:18;1.90;99.90
2967;DHT22;1493;51.496;7.210;2023-04-03T01:07:45;1.90;99.90
2967;DHT22;1493;51.496;7.210;2023-04-03T01:10:15;2.00;99.90
2967;DHT22;1493;51.496;7.210;2023-04-03T01:12:45;2.10;99.90
2967;DHT22;1493;51.496;7.210;2023-04-03T01:15:15;2.10;99.90
2967;DHT22;1493;51.496;7.210;2023-04-03T01:17:43;2.10;99.90
2967;DHT22;1493;51.496;7.210;2023-04-03T01:20:35;2.20;99.90
2967;DHT22;1493;51.496;7.210;2023-04-03T01:23:15;2.20;99.90
2967;DHT22;1493;51.496;7.210;2023-04-03T01:25:46;2.20;99.90
2967;DHT22;1493;51.496;7.210;2023-04-03T01:28:17;2.30;99.90
2967;DHT22;1493;51.496;7.210;2023-04-03T01:30:48;2.30;99.90
2967;DHT22;1493;51.496;7.210;2023-04-03T01:33:18;2.30;99.90
2967;DHT22;1493;51.496;7.210;2023-04-03T01:35:45;2.30;99.90
2967;DHT22;1493;51.496;7.210;2023-04-03T01:38:12;2.30;99.90
2967;DHT22;1493;51.496;7.210;2023-04-03T01:40:39;2.30;99.90
2967;DHT22;1493;51.496;7.210;2023-04-03T01:43:06;2.30;99.90
2967;DHT22;1493;51.496;7.210;2023-04-03T01:45:33;2.30;99.90
2967;DHT22;1493;51.496;7.210;2023-04-03T01:47:59;2.40;99.90
2967;DHT22;1493;51.496;7.210;2023-04-03T01:50:27;2.40;99.90
2967;DHT22;1493;51.496;7.210;2023-04-03T01:52:55;2.40;99.90
2967;DHT22;1493;51.496;7.210;2023-04-03T01:55:22;2.40;99.90
2967;DHT22;1493;51.496;7.210;2023-04-03T01:57:48;2.30;99.90
2967;DHT22;1493;51.496;7.210;2023-04-03T02:00:16;2.30;99.90
2967;DHT22;1493;51.496;7.210;2023-04-03T02:02:42;2.30;99.90
2967;DHT22;1493;51.496;7.210;2023-04-03T02:05:10;2.30;99.90
2967;DHT22;1493;51.496;7.210;2023-04-03T02:07:38;2.20;99.90
2967;DHT22;1493;51.496;7.210;2023-04-03T02:10:05;2.20;99.90
2967;DHT22;1493;51.496;7.210;2023-04-03T02:12:32;2.20;99.90
2967;DHT22;1493;51.496;7.210;2023-04-03T02:14:59;2.20;99.90
2967;DHT22;1493;51.496;7.210;2023-04-03T02:17:26;2.20;99.90
2967;DHT22;1493;51.496;7.210;2023-04-03T02:19:53;2.20;99.90
2967;DHT22;1493;51.496;7.210;2023-04-03T02:22:20;2.20;99.90
2967;DHT22;1493;51.496;7.210;2023-04-03T02:24:48;2.10;99.90
2967;DHT22;1493;51.496;7.210;2023-04-03T02:27:15;2.10;99.90
2967;DHT22;1493;51.496;7.210;2023-04-03T02:29:41;2.10;99.90
2967;DHT22;1493;51.496;7.210;2023-04-03T02:32:08;2.10;99.90
2967;DHT22;1493;51.496;7.210;2023-04-03T02:34:35;2.00;99.90
2967;DHT22;1493;51.496;7.210;2023-04-03T02:37:02;2.00;99.90
2967;DHT22;1493;51.496;7.210;2023-04-03T02:39:29;2.10;99.90
2967;DHT22;1493;51.496;7.210;2023-04-03T02:41:57;2.10;99.90
2967;DHT22;1493;51.496;7.210;2023-04-03T02:44:24;2.10;99.90
2967;DHT22;1493;51.496;7.210;2023-04-03T02:46:51;2.10;99.90
2967;DHT22;1493;51.496;7.210;2023-04-03T02:49:18;2.10;99.90
2967;DHT22;1493;51.496;7.210;2023-04-03T02:51:44;2.10;99.90
2967;DHT22;1493;51.496;7.210;2023-04-03T02:54:11;2.00;99.90
2967;DHT22;1493;51.496;7.210;2023-04-03T02:56:38;2.00;99.90
2967;DHT22;1493;51.496;7.210;2023-04-03T02:59:06;2.00;99.90
2967;DHT22;1493;51.496;7.210;2023-04-03T03:01:33;2.00;99.90
2967;DHT22;1493;51.496;7.210;2023-04-03T03:04:01;2.00;99.90
2967;DHT22;1493;51.496;7.210;2023-04-03T03:06:28;2.00;99.90
2967;DHT22;1493;51.496;7.210;2023-04-03T03:08:54;1.90;99.90
2967;DHT22;1493;51.496;7.210;2023-04-03T03:11:21;1.90;99.90
2967;DHT22;1493;51.496;7.210;2023-04-03T03:13:48;1.90;99.90
2967;DHT22;1493;51.496;7.210;2023-04-03T03:16:16;1.90;99.90
2967;DHT22;1493;51.496;7.210;2023-04-03T03:18:43;1.90;99.90
2967;DHT22;1493;51.496;7.210;2023-04-03T03:21:10;1.90;99.90
2967;DHT22;1493;51.496;7.210;2023-04-03T03:23:37;1.90;99.90
2967;DHT22;1493;51.496;7.210;2023-04-03T03:26:06;1.90;99.90
2967;DHT22;1493;51.496;7.210;2023-04-03T03:28:34;1.90;99.90
2967;DHT22;1493;51.496;7.210;2023-04-03T03:31:02;1.80;99.90
2967;DHT22;1493;51.496;7.210;2023-04-03T03:33:30;1.80;99.90
2967;DHT22;1493;51.496;7.210;2023-04-03T03:35:57;1.80;99.90
2967;DHT22;1493;51.496;7.210;2023-04-03T03:38:24;1.80;99.90
2967;DHT22;1493;51.496;7.210;2023-04-03T03:40:52;1.80;99.90
2967;DHT22;1493;51.496;7.210;2023-04-03T03:43:18;1.80;99.90
2967;DHT22;1493;51.496;7.210;2023-04-03T03:45:50;1.80;99.90
2967;DHT22;1493;51.496;7.210;2023-04-03T03:48:16;1.80;99.90
2967;DHT22;1493;51.496;7.210;2023-04-03T03:50:45;1.70;99.90
2967;DHT22;1493;51.496;7.210;2023-04-03T03:53:11;1.70;99.90
2967;DHT22;1493;51.496;7.210;2023-04-03T03:55:38;1.70;99.90
2967;DHT22;1493;51.496;7.210;2023-04-03T03:58:05;1.70;99.90
2967;DHT22;1493;51.496;7.210;2023-04-03T04:00:35;1.70;99.90
2967;DHT22;1493;51.496;7.210;2023-04-03T04:03:02;1.70;99.90
2967;DHT22;1493;51.496;7.210;2023-04-03T04:05:29;1.60;99.90
2967;DHT22;1493;51.496;7.210;2023-04-03T04:07:57;1.60;99.90
2967;DHT22;1493;51.496;7.210;2023-04-03T04:10:24;1.60;99.90
2967;DHT22;1493;51.496;7.210;2023-04-03T04:12:50;1.60;99.90
2967;DHT22;1493;51.496;7.210;2023-04-03T04:15:17;1.60;99.90
2967;DHT22;1493;51.496;7.210;2023-04-03T04:17:44;1.60;99.90
2967;DHT22;1493;51.496;7.210;2023-04-03T04:20:11;1.60;99.90
2967;DHT22;1493;51.496;7.210;2023-04-03T04:22:38;1.60;99.90
2967;DHT22;1493;51.496;7.210;2023-04-03T04:25:07;1.60;99.90
2967;DHT22;1493;51.496;7.210;2023-04-03T04:27:34;1.60;99.90
2967;DHT22;1493;51.496;7.210;2023-04-03T04:30:03;1.50;99.90
2967;DHT22;1493;51.496;7.210;2023-04-03T04:32:30;1.50;99.90
2967;DHT22;1493;51.496;7.210;2023-04-03T04:34:56;1.50;99.90
2967;DHT22;1493;51.496;7.210;2023-04-03T04:37:23;1.50;99.90
2967;DHT22;1493;51.496;7.210;2023-04-03T04:39:50;1.50;99.90
2967;DHT22;1493;51.496;7.210;2023-04-03T04:42:18;1.50;99.90
2967;DHT22;1493;51.496;7.210;2023-04-03T04:44:45;1.40;99.90
2967;DHT22;1493;51.496;7.210;2023-04-03T04:47:12;1.40;1.00
2967;DHT22;1493;51.496;7.210;2023-04-03T04:49:39;1.40;1.00
2967;DHT22;1493;51.496;7.210;2023-04-03T04:52:06;1.40;1.00
2967;DHT22;1493;51.496;7.210;2023-04-03T04:54:33;1.40;1.00
2967;DHT22;1493;51.496;7.210;2023-04-03T04:56:59;1.30;1.00
2967;DHT22;1493;51.496;7.210;2023-04-03T04:59:28;1.30;1.00
2967;DHT22;1493;51.496;7.210;2023-04-03T05:01:54;1.30;1.00
2967;DHT22;1493;51.496;7.210;2023-04-03T05:04:21;1.30;1.00
2967;DHT22;1493;51.496;7.210;2023-04-03T05:06:50;1.30;1.00
2967;DHT22;1493;51.496;7.210;2023-04-03T05:09:17;1.20;1.00
2967;DHT22;1493;51.496;7.210;2023-04-03T05:11:45;1.30;1.00
2967;DHT22;1493;51.496;7.210;2023-04-03T05:14:12;1.30;1.00
2967;DHT22;1493;51.496;7.210;2023-04-03T05:16:40;1.20;1.00
2967;DHT22;1493;51.496;7.210;2023-04-03T05:19:07;1.20;1.00
2967;DHT22;1493;51.496;7.210;2023-04-03T05:21:34;1.20;1.00
2967;DHT22;1493;51.496;7.210;2023-04-03T05:24:02;1.30;1.00
2967;DHT22;1493;51.496;7.210;2023-04-03T05:26:29;1.20;1.00
2967;DHT22;1493;51.496;7.210;2023-04-03T05:28:56;1.20;1.00
2967;DHT22;1493;51.496;7.210;2023-04-03T05:31:23;1.20;1.00
2967;DHT22;1493;51.496;7.210;2023-04-03T05:33:51;1.20;1.00
2967;DHT22;1493;51.496;7.210;2023-04-03T05:36:18;1.20;1.00
2967;DHT22;1493;51.496;7.210;2023-04-03T05:38:47;1.30;1.00
2967;DHT22;1493;51.496;7.210;2023-04-03T05:41:15;1.30;1.00
2967;DHT22;1493;51.496;7.210;2023-04-03T05:43:42;1.30;1.00
2967;DHT22;1493;51.496;7.210;2023-04-03T05:46:10;1.30;1.00
2967;DHT22;1493;51.496;7.210;2023-04-03T05:48:37;1.40;1.00
2967;DHT22;1493;51.496;7.210;2023-04-03T05:51:06;1.40;1.00
2967;DHT22;1493;51.496;7.210;2023-04-03T05:53:35;1.40;1.00
2967;DHT22;1493;51.496;7.210;2023-04-03T05:56:03;1.40;1.00
2967;DHT22;1493;51.496;7.210;2023-04-03T05:58:30;1.40;1.00
2967;DHT22;1493;51.496;7.210;2023-04-03T06:00:57;1.50;1.00
2967;DHT22;1493;51.496;7.210;2023-04-03T06:03:26;1.50;1.00
2967;DHT22;1493;51.496;7.210;2023-04-03T06:05:53;1.60;1.00
2967;DHT22;1493;51.496;7.210;2023-04-03T06:08:22;1.60;1.00
2967;DHT22;1493;51.496;7.210;2023-04-03T06:10:49;1.60;1.00
2967;DHT22;1493;51.496;7.210;2023-04-03T06:13:16;1.60;1.00
2967;DHT22;1493;51.496;7.210;2023-04-03T06:15:43;1.70;1.00
2967;DHT22;1493;51.496;7.210;2023-04-03T06:18:10;1.70;1.00
2967;DHT22;1493;51.496;7.210;2023-04-03T06:20:37;1.80;1.00
2967;DHT22;1493;51.496;7.210;2023-04-03T06:23:04;1.80;1.00
2967;DHT22;1493;51.496;7.210;2023-04-03T06:25:32;1.90;1.00
2967;DHT22;1493;51.496;7.210;2023-04-03T06:27:59;1.90;1.00
2967;DHT22;1493;51.496;7.210;2023-04-03T06:30:26;1.90;99.90
2967;DHT22;1493;51.496;7.210;2023-04-03T06:32:53;2.00;99.90
2967;DHT22;1493;51.496;7.210;2023-04-03T06:35:21;2.00;99.90
2967;DHT22;1493;51.496;7.210;2023-04-03T06:37:49;2.00;99.90
2967;DHT22;1493;51.496;7.210;2023-04-03T06:40:21;2.10;99.90
2967;DHT22;1493;51.496;7.210;2023-04-03T06:42:49;2.10;99.90
2967;DHT22;1493;51.496;7.210;2023-04-03T06:45:22;2.10;2.30
2967;DHT22;1493;51.496;7.210;2023-04-03T06:47:51;2.20;1.00
2967;DHT22;1493;51.496;7.210;2023-04-03T06:50:18;2.20;44.80
2967;DHT22;1493;51.496;7.210;2023-04-03T06:52:44;2.30;12.00
2967;DHT22;1493;51.496;7.210;2023-04-03T06:55:11;2.30;1.00
2967;DHT22;1493;51.496;7.210;2023-04-03T06:57:38;2.30;1.00
2967;DHT22;1493;51.496;7.210;2023-04-03T07:00:08;2.30;1.00
2967;DHT22;1493;51.496;7.210;2023-04-03T07:02:35;2.30;99.90
2967;DHT22;1493;51.496;7.210;2023-04-03T07:05:02;2.40;99.90
2967;DHT22;1493;51.496;7.210;2023-04-03T07:07:29;2.50;99.90
2967;DHT22;1493;51.496;7.210;2023-04-03T07:09:57;2.50;99.90
2967;DHT22;1493;51.496;7.210;2023-04-03T07:12:24;2.50;99.90
2967;DHT22;1493;51.496;7.210;2023-04-03T07:14:50;2.50;1.00
2967;DHT22;1493;51.496;7.210;2023-04-03T07:17:19;2.60;99.90
2967;DHT22;1493;51.496;7.210;2023-04-03T07:19:45;2.60;14.80
2967;DHT22;1493;51.496;7.210;2023-04-03T07:22:12;2.60;1.00
2967;DHT22;1493;51.496;7.210;2023-04-03T07:24:40;2.70;1.00
2967;DHT22;1493;51.496;7.210;2023-04-03T07:27:07;2.80;99.90
2967;DHT22;1493;51.496;7.210;2023-04-03T07:29:34;2.80;1.00
2967;DHT22;1493;51.496;7.210;2023-04-03T07:32:01;2.90;99.90
2967;DHT22;1493;51.496;7.210;2023-04-03T07:34:29;3.00;1.00
2967;DHT22;1493;51.496;7.210;2023-04-03T07:36:59;3.10;99.90
2967;DHT22;1493;51.496;7.210;2023-04-03T07:39:26;3.20;1.00
2967;DHT22;1493;51.496;7.210;2023-04-03T07:41:53;3.40;99.90
2967;DHT22;1493;51.496;7.210;2023-04-03T07:44:21;3.50;99.90
2967;DHT22;1493;51.496;7.210;2023-04-03T07:46:48;3.80;1.00
2967;DHT22;1493;51.496;7.210;2023-04-03T07:49:16;4.00;1.00
2967;DHT22;1493;51.496;7.210;2023-04-03T07:51:45;4.10;1.00
2967;DHT22;1493;51.496;7.210;2023-04-03T07:54:12;4.20;1.00
2967;DHT22;1493;51.496;7.210;2023-04-03T07:56:39;4.30;99.90
2967;DHT22;1493;51.496;7.210;2023-04-03T07:59:05;4.40;99.90
2967;DHT22;1493;51.496;7.210;2023-04-03T08:01:33;4.60;18.80
2967;DHT22;1493;51.496;7.210;2023-04-03T08:04:00;4.90;41.50
2967;DHT22;1493;51.496;7.210;2023-04-03T08:06:27;5.20;4.20
2967;DHT22;1493;51.496;7.210;2023-04-03T08:08:56;5.40;1.00
2967;DHT22;1493;51.496;7.210;2023-04-03T08:11:22;5.70;1.00
2967;DHT22;1493;51.496;7.210;2023-04-03T08:13:51;5.90;1.00
2967;DHT22;1493;51.496;7.210;2023-04-03T08:16:20;6.00;1.00
2967;DHT22;1493;51.496;7.210;2023-04-03T08:18:48;6.10;1.00
2967;DHT22;1493;51.496;7.210;2023-04-03T08:21:15;6.20;1.00
2967;DHT22;1493;51.496;7.210;2023-04-03T08:23:42;6.70;1.00
2967;DHT22;1493;51.496;7.210;2023-04-03T08:26:11;7.70;1.00
2967;DHT22;1493;51.496;7.210;2023-04-03T08:28:38;8.30;1.00
2967;DHT22;1493;51.496;7.210;2023-04-03T08:31:07;8.90;1.00
2967;DHT22;1493;51.496;7.210;2023-04-03T08:33:39;9.30;1.00
2967;DHT22;1493;51.496;7.210;2023-04-03T08:36:07;10.80;99.90
2967;DHT22;1493;51.496;7.210;2023-04-03T08:38:35;11.70;99.90
2967;DHT22;1493;51.496;7.210;2023-04-03T08:41:10;12.90;99.90
2967;DHT22;1493;51.496;7.210;2023-04-03T08:43:47;13.50;99.90
2967;DHT22;1493;51.496;7.210;2023-04-03T08:46:20;13.90;1.00
2967;DHT22;1493;51.496;7.210;2023-04-03T08:48:50;13.90;99.90
2967;DHT22;1493;51.496;7.210;2023-04-03T08:51:19;13.70;99.90
2967;DHT22;1493;51.496;7.210;2023-04-03T08:53:52;13.00;99.90
2967;DHT22;1493;51.496;7.210;2023-04-03T08:56:22;13.20;99.90
2967;DHT22;1493;51.496;7.210;2023-04-03T08:58:55;13.30;99.90
2967;DHT22;1493;51.496;7.210;2023-04-03T09:01:26;14.10;99.90
2967;DHT22;1493;51.496;7.210;2023-04-03T09:03:54;13.50;99.90
2967;DHT22;1493;51.496;7.210;2023-04-03T09:06:23;13.30;99.90
2967;DHT22;1493;51.496;7.210;2023-04-03T09:09:00;13.50;99.90
2967;DHT22;1493;51.496;7.210;2023-04-03T09:11:39;13.40;99.90
2967;DHT22;1493;51.496;7.210;2023-04-03T09:14:16;14.40;99.90
2967;DHT22;1493;51.496;7.210;2023-04-03T09:16:50;14.50;99.90
2967;DHT22;1493;51.496;7.210;2023-04-03T09:19:21;14.90;99.90
2967;DHT22;1493;51.496;7.210;2023-04-03T09:21:50;15.00;99.90
2967;DHT22;1493;51.496;7.210;2023-04-03T09:24:17;16.10;99.90
2967;DHT22;1493;51.496;7.210;2023-04-03T09:26:51;17.00;99.90
2967;DHT22;1493;51.496;7.210;2023-04-03T09:29:22;18.10;99.90
2967;DHT22;1493;51.496;7.210;2023-04-03T09:31:50;18.00;99.90
2967;DHT22;1493;51.496;7.210;2023-04-03T09:34:23;17.60;99.90
2967;DHT22;1493;51.496;7.210;2023-04-03T09:36:53;17.30;99.90
2967;DHT22;1493;51.496;7.210;2023-04-03T09:39:22;18.00;99.90
2967;DHT22;1493;51.496;7.210;2023-04-03T09:41:58;18.60;99.90
2967;DHT22;1493;51.496;7.210;2023-04-03T09:44:34;19.00;99.90
2967;DHT22;1493;51.496;7.210;2023-04-03T09:47:18;18.80;99.90
2967;DHT22;1493;51.496;7.210;2023-04-03T09:49:45;18.30;99.90
2967;DHT22;1493;51.496;7.210;2023-04-03T09:52:20;18.50;99.90
2967;DHT22;1493;51.496;7.210;2023-04-03T09:54:47;18.80;99.90
2967;DHT22;1493;51.496;7.210;2023-04-03T09:57:14;19.70;99.90
2967;DHT22;1493;51.496;7.210;2023-04-03T09:59:46;20.30;99.90
2967;DHT22;1493;51.496;7.210;2023-04-03T10:02:24;20.60;99.90
2967;DHT22;1493;51.496;7.210;2023-04-03T10:04:54;21.30;99.90
2967;DHT22;1493;51.496;7.210;2023-04-03T10:07:27;21.40;99.90
2967;DHT22;1493;51.496;7.210;2023-04-03T10:09:56;21.00;99.90
2967;DHT22;1493;51.496;7.210;2023-04-03T10:12:23;21.00;99.90
2967;DHT22;1493;51.496;7.210;2023-04-03T10:14:56;20.10;99.90
2967;DHT22;1493;51.496;7.210;2023-04-03T10:17:32;20.00;99.90
2967;DHT22;1493;51.496;7.210;2023-04-03T10:20:09;20.60;99.90
2967;DHT22;1493;51.496;7.210;2023-04-03T10:22:43;20.60;99.90
2967;DHT22;1493;51.496;7.210;2023-04-03T10:25:20;22.00;99.90
2967;DHT22;1493;51.496;7.210;2023-04-03T10:27:53;21.80;99.90
2967;DHT22;1493;51.496;7.210;2023-04-03T10:30:32;21.90;99.90
2967;DHT22;1493;51.496;7.210;2023-04-03T10:33:36;22.30;99.90
2967;DHT22;1493;51.496;7.210;2023-04-03T10:36:12;22.30;99.90
2967;DHT22;1493;51.496;7.210;2023-04-03T10:38:48;22.40;99.90
2967;DHT22;1493;51.496;7.210;2023-04-03T10:41:23;22.70;99.90
2967;DHT22;1493;51.496;7.210;2023-04-03T10:44:01;22.90;99.90
2967;DHT22;1493;51.496;7.210;2023-04-03T10:46:35;22.80;99.90
2967;DHT22;1493;51.496;7.210;2023-04-03T10:49:13;21.60;99.90
2967;DHT22;1493;51.496;7.210;2023-04-03T10:51:44;21.70;99.90
2967;DHT22;1493;51.496;7.210;2023-04-03T10:54:13;21.80;99.90
2967;DHT22;1493;51.496;7.210;2023-04-03T10:56:47;21.60;99.90
2967;DHT22;1493;51.496;7.210;2023-04-03T10:59:23;21.10;99.90
2967;DHT22;1493;51.496;7.210;2023-04-03T11:01:56;21.00;99.90
2967;DHT22;1493;51.496;7.210;2023-04-03T11:04:29;21.30;99.90
2967;DHT22;1493;51.496;7.210;2023-04-03T11:07:02;22.30;99.90
2967;DHT22;1493;51.496;7.210;2023-04-03T11:09:33;22.80;99.90
2967;DHT22;1493;51.496;7.210;2023-04-03T11:12:05;22.80;99.90
2967;DHT22;1493;51.496;7.210;2023-04-03T11:14:37;21.80;99.90
2967;DHT22;1493;51.496;7.210;2023-04-03T11:17:19;21.90;99.90
2967;DHT22;1493;51.496;7.210;2023-04-03T11:19:56;22.00;99.90
2967;DHT22;1493;51.496;7.210;2023-04-03T11:22:28;22.10;99.90
2967;DHT22;1493;51.496;7.210;2023-04-03T11:25:02;22.50;99.90
2967;DHT22;1493;51.496;7.210;2023-04-03T11:27:35;22.40;99.90
2967;DHT22;1493;51.496;7.210;2023-04-03T11:30:07;22.80;99.90
2967;DHT22;1493;51.496;7.210;2023-04-03T11:35:43;22.50;99.90
2967;DHT22;1493;51.496;7.210;2023-04-03T11:38:19;21.60;99.90
2967;DHT22;1493;51.496;7.210;2023-04-03T11:40:48;21.90;99.90
2967;DHT22;1493;51.496;7.210;2023-04-03T11:43:23;21.80;99.90
2967;DHT22;1493;51.496;7.210;2023-04-03T11:45:56;21.70;99.90
2967;DHT22;1493;51.496;7.210;2023-04-03T11:48:50;22.70;99.90
2967;DHT22;1493;51.496;7.210;2023-04-03T11:51:42;23.50;99.90
2967;DHT22;1493;51.496;7.210;2023-04-03T11:54:47;23.80;99.90
2967;DHT22;1493;51.496;7.210;2023-04-03T11:57:43;24.40;99.90
2967;DHT22;1493;51.496;7.210;2023-04-03T12:00:49;24.10;99.90
2967;DHT22;1493;51.496;7.210;2023-04-03T12:09:56;23.90;99.90
2967;DHT22;1493;51.496;7.210;2023-04-03T12:12:38;25.00;99.90
2967;DHT22;1493;51.496;7.210;2023-04-03T12:21:25;23.20;99.90
2967;DHT22;1493;51.496;7.210;2023-04-03T12:24:24;22.90;99.90
2967;DHT22;1493;51.496;7.210;2023-04-03T12:27:03;23.70;99.90
2967;DHT22;1493;51.496;7.210;2023-04-03T12:29:35;24.10;99.90
2967;DHT22;1493;51.496;7.210;2023-04-03T12:32:14;24.50;99.90
2967;DHT22;1493;51.496;7.210;2023-04-03T12:35:05;24.70;99.90
2967;DHT22;1493;51.496;7.210;2023-04-03T12:37:50;25.50;99.90
2967;DHT22;1493;51.496;7.210;2023-04-03T12:40:26;24.40;99.90
2967;DHT22;1493;51.496;7.210;2023-04-03T12:43:06;24.60;99.90
2967;DHT22;1493;51.496;7.210;2023-04-03T12:45:41;23.60;99.90
2967;DHT22;1493;51.496;7.210;2023-04-03T12:48:15;24.50;99.90
2967;DHT22;1493;51.496;7.210;2023-04-03T12:50:43;25.60;99.90
2967;DHT22;1493;51.496;7.210;2023-04-03T12:53:14;26.50;99.90
2967;DHT22;1493;51.496;7.210;2023-04-03T12:55:43;26.30;99.90
2967;DHT22;1493;51.496;7.210;2023-04-03T12:58:22;24.80;99.90
2967;DHT22;1493;51.496;7.210;2023-04-03T13:00:59;26.00;99.90
2967;DHT22;1493;51.496;7.210;2023-04-03T13:03:27;25.90;99.90
2967;DHT22;1493;51.496;7.210;2023-04-03T13:05:59;27.00;99.90
2967;DHT22;1493;51.496;7.210;2023-04-03T13:08:27;25.80;99.90
2967;DHT22;1493;51.496;7.210;2023-04-03T13:10:59;24.70;99.90
2967;DHT22;1493;51.496;7.210;2023-04-03T13:13:29;24.30;99.90
2967;DHT22;1493;51.496;7.210;2023-04-03T13:15:57;23.80;99.90
2967;DHT22;1493;51.496;7.210;2023-04-03T13:18:26;24.40;99.90
2967;DHT22;1493;51.496;7.210;2023-04-03T13:20:54;24.10;99.90
2967;DHT22;1493;51.496;7.210;2023-04-03T13:23:23;24.20;99.90
2967;DHT22;1493;51.496;7.210;2023-04-03T13:25:51;24.40;99.90
2967;DHT22;1493;51.496;7.210;2023-04-03T13:28:24;24.20;99.90
2967;DHT22;1493;51.496;7.210;2023-04-03T13:31:02;23.60;99.90
2967;DHT22;1493;51.496;7.210;2023-04-03T13:33:32;22.20;99.90
2967;DHT22;1493;51.496;7.210;2023-04-03T13:36:03;23.00;99.90
2967;DHT22;1493;51.496;7.210;2023-04-03T13:38:32;23.60;99.90
2967;DHT22;1493;51.496;7.210;2023-04-03T13:41:01;24.10;99.90
2967;DHT22;1493;51.496;7.210;2023-04-03T13:43:30;24.00;99.90
2967;DHT22;1493;51.496;7.210;2023-04-03T13:46:19;24.60;99.90
2967;DHT22;1493;51.496;7.210;2023-04-03T13:48:49;25.60;99.90
2967;DHT22;1493;51.496;7.210;2023-04-03T13:51:22;24.30;99.90
2967;DHT22;1493;51.496;7.210;2023-04-03T13:53:52;24.50;99.90
2967;DHT22;1493;51.496;7.210;2023-04-03T13:56:25;24.60;99.90
2967;DHT22;1493;51.496;7.210;2023-04-03T13:58:55;24.20;99.90
2967;DHT22;1493;51.496;7.210;2023-04-03T14:01:24;24.00;99.90
2967;DHT22;1493;51.496;7.210;2023-04-03T14:03:56;23.80;99.90
2967;DHT22;1493;51.496;7.210;2023-04-03T14:06:24;24.40;99.90
2967;DHT22;1493;51.496;7.210;2023-04-03T14:08:51;23.90;99.90
2967;DHT22;1493;51.496;7.210;2023-04-03T14:11:20;24.00;99.90
2967;DHT22;1493;51.496;7.210;2023-04-03T14:13:48;24.40;99.90
2967;DHT22;1493;51.496;7.210;2023-04-03T14:16:19;24.50;99.90
2967;DHT22;1493;51.496;7.210;2023-04-03T14:18:48;24.50;99.90
2967;DHT22;1493;51.496;7.210;2023-04-03T14:21:18;22.20;99.90
2967;DHT22;1493;51.496;7.210;2023-04-03T14:23:45;23.00;99.90
2967;DHT22;1493;51.496;7.210;2023-04-03T14:26:14;22.70;99.90
2967;DHT22;1493;51.496;7.210;2023-04-03T14:28:43;22.20;99.90
2967;DHT22;1493;51.496;7.210;2023-04-03T14:31:11;21.00;99.90
2967;DHT22;1493;51.496;7.210;2023-04-03T14:33:38;19.70;99.90
2967;DHT22;1493;51.496;7.210;2023-04-03T14:36:13;20.10;99.90
2967;DHT22;1493;51.496;7.210;2023-04-03T14:38:42;20.60;99.90
2967;DHT22;1493;51.496;7.210;2023-04-03T14:41:11;21.20;99.90
2967;DHT22;1493;51.496;7.210;2023-04-03T14:43:38;21.00;99.90
2967;DHT22;1493;51.496;7.210;2023-04-03T14:46:11;21.30;99.90
2967;DHT22;1493;51.496;7.210;2023-04-03T14:48:38;19.90;99.90
2967;DHT22;1493;51.496;7.210;2023-04-03T14:51:05;17.80;99.90
2967;DHT22;1493;51.496;7.210;2023-04-03T14:53:34;16.00;99.90
2967;DHT22;1493;51.496;7.210;2023-04-03T14:56:01;14.70;99.90
2967;DHT22;1493;51.496;7.210;2023-04-03T14:58:28;13.70;99.90
2967;DHT22;1493;51.496;7.210;2023-04-03T15:00:55;13.10;99.90
2967;DHT22;1493;51.496;7.210;2023-04-03T15:03:22;12.60;99.90
2967;DHT22;1493;51.496;7.210;2023-04-03T15:05:49;12.10;99.90
2967;DHT22;1493;51.496;7.210;2023-04-03T15:08:19;11.70;99.90
2967;DHT22;1493;51.496;7.210;2023-04-03T15:10:48;11.40;99.90
2967;DHT22;1493;51.496;7.210;2023-04-03T15:13:15;11.30;99.90
2967;DHT22;1493;51.496;7.210;2023-04-03T15:15:42;11.30;99.90
2967;DHT22;1493;51.496;7.210;2023-04-03T15:18:16;11.40;99.90
2967;DHT22;1493;51.496;7.210;2023-04-03T15:20:44;11.40;99.90
2967;DHT22;1493;51.496;7.210;2023-04-03T15:23:12;11.30;99.90
2967;DHT22;1493;51.496;7.210;2023-04-03T15:25:41;11.10;99.90
2967;DHT22;1493;51.496;7.210;2023-04-03T15:28:18;11.00;99.90
2967;DHT22;1493;51.496;7.210;2023-04-03T15:30:45;11.00;99.90
2967;DHT22;1493;51.496;7.210;2023-04-03T15:33:12;10.90;99.90
2967;DHT22;1493;51.496;7.210;2023-04-03T15:35:41;10.90;99.90
2967;DHT22;1493;51.496;7.210;2023-04-03T15:38:08;10.90;99.90
2967;DHT22;1493;51.496;7.210;2023-04-03T15:40:35;11.00;99.90
2967;DHT22;1493;51.496;7.210;2023-04-03T15:43:03;11.50;99.90
2967;DHT22;1493;51.496;7.210;2023-04-03T15:45:32;11.60;99.90
2967;DHT22;1493;51.496;7.210;2023-04-03T15:48:00;11.80;99.90
2967;DHT22;1493;51.496;7.210;2023-04-03T15:50:27;11.90;99.90
2967;DHT22;1493;51.496;7.210;2023-04-03T15:52:54;11.90;99.90
2967;DHT22;1493;51.496;7.210;2023-04-03T15:55:24;12.20;99.90
2967;DHT22;1493;51.496;7.210;2023-04-03T15:57:51;12.00;99.90
2967;DHT22;1493;51.496;7.210;2023-04-03T16:00:19;11.60;99.90
2967;DHT22;1493;51.496;7.210;2023-04-03T16:02:52;11.30;99.90
2967;DHT22;1493;51.496;7.210;2023-04-03T16:05:20;11.00;99.90
2967;DHT22;1493;51.496;7.210;2023-04-03T16:07:47;10.80;99.90
2967;DHT22;1493;51.496;7.210;2023-04-03T16:10:15;10.30;99.90
2967;DHT22;1493;51.496;7.210;2023-04-03T16:12:43;9.90;99.90
2967;DHT22;1493;51.496;7.210;2023-04-03T16:15:11;9.80;99.90
2967;DHT22;1493;51.496;7.210;2023-04-03T16:17:38;9.80;99.90
2967;DHT22;1493;51.496;7.210;2023-04-03T16:20:11;10.00;99.90
2967;DHT22;1493;51.496;7.210;2023-04-03T16:22:38;10.20;99.90
2967;DHT22;1493;51.496;7.210;2023-04-03T16:25:06;10.10;99.90
2967;DHT22;1493;51.496;7.210;2023-04-03T16:27:34;10.20;99.90
2967;DHT22;1493;51.496;7.210;2023-04-03T16:30:01;10.00;99.90
2967;DHT22;1493;51.496;7.210;2023-04-03T16:32:30;9.90;99.90
2967;DHT22;1493;51.496;7.210;2023-04-03T16:34:57;9.80;99.90
2967;DHT22;1493;51.496;7.210;2023-04-03T16:37:26;9.60;99.90
2967;DHT22;1493;51.496;7.210;2023-04-03T16:39:52;9.20;99.90
2967;DHT22;1493;51.496;7.210;2023-04-03T16:42:19;9.00;99.90
2967;DHT22;1493;51.496;7.210;2023-04-03T16:44:46;8.80;99.90
2967;DHT22;1493;51.496;7.210;2023-04-03T16:47:13;8.60;99.90
2967;DHT22;1493;51.496;7.210;2023-04-03T16:49:44;8.50;99.90